createdAt,value
2022-10-12T00:03:38.835Z,25.85
2022-10-12T00:08:23.843Z,24.63
2022-10-12T00:13:12.287Z,23.92
2022-10-12T00:17:57.319Z,23.55
2022-10-12T00:22:42.609Z,28.05
2022-10-12T00:27:27.666Z,28.88
2022-10-12T00:32:15.574Z,25.33
2022-10-12T00:37:00.630Z,29.63
2022-10-12T00:41:47.456Z,26.70
2022-10-12T00:46:36.069Z,26.92
2022-10-12T00:51:25.641Z,28.25
2022-10-12T00:56:16.890Z,28.73
2022-10-12T01:01:07.215Z,29.05
2022-10-12T01:05:52.546Z,29.38
2022-10-12T01:10:40.541Z,23.23
2022-10-12T01:15:29.459Z,26.00
2022-10-12T01:20:44.190Z,28.77
2022-10-12T01:25:51.644Z,25.88
2022-10-12T01:30:43.999Z,24.77
2022-10-12T01:35:37.405Z,25.60
2022-10-12T01:40:30.102Z,32.60
2022-10-12T01:45:17.252Z,27.50
2022-10-12T01:50:07.530Z,27.92
2022-10-12T01:55:20.165Z,29.73
2022-10-12T02:00:10.342Z,27.95
2022-10-12T02:05:02.431Z,27.58
2022-10-12T02:09:51.040Z,24.30
2022-10-12T02:14:42.001Z,28.38
2022-10-12T02:19:30.805Z,25.77
2022-10-12T02:24:18.169Z,24.10
2022-10-12T02:29:09.408Z,25.05
2022-10-12T02:34:03.660Z,27.95
2022-10-12T02:38:55.734Z,29.30
2022-10-12T02:43:43.242Z,26.17
2022-10-12T02:48:32.933Z,29.15
2022-10-12T02:53:18.534Z,27.67
2022-10-12T02:58:04.054Z,27.85
2022-10-12T03:02:49.108Z,24.35
2022-10-12T03:07:37.304Z,29.00
2022-10-12T03:12:22.606Z,26.95
2022-10-12T03:17:07.998Z,26.42
2022-10-12T03:21:53.014Z,24.23
2022-10-12T03:26:41.024Z,23.70
2022-10-12T03:31:26.090Z,25.67
2022-10-12T03:36:12.704Z,23.27
2022-10-12T03:40:59.909Z,23.52
2022-10-12T03:45:49.889Z,22.50
2022-10-12T03:50:35.985Z,24.58
2022-10-12T03:55:21.295Z,27.02
2022-10-12T04:00:07.048Z,27.70
2022-10-12T04:04:55.456Z,39.28
2022-10-12T04:09:40.537Z,48.63
2022-10-12T04:14:25.931Z,55.05
2022-10-12T04:19:15.047Z,51.83
2022-10-12T04:24:02.991Z,37.75
2022-10-12T04:28:48.104Z,36.15
2022-10-12T04:33:33.470Z,27.15
2022-10-12T04:38:18.534Z,22.35
2022-10-12T04:43:06.467Z,32.95
2022-10-12T04:47:51.511Z,25.40
2022-10-12T04:52:36.924Z,24.08
2022-10-12T04:57:21.931Z,56.88
2022-10-12T05:02:09.919Z,50.55
2022-10-12T05:06:54.967Z,61.17
2022-10-12T05:11:40.278Z,69.13
2022-10-12T05:16:26.046Z,37.25
2022-10-12T05:21:14.108Z,22.55
2022-10-12T05:25:59.356Z,22.73
2022-10-12T05:30:44.678Z,18.88
2022-10-12T05:35:29.772Z,21.45
2022-10-12T05:40:17.891Z,16.77
2022-10-12T05:45:07.578Z,22.98
2022-10-12T05:49:54.269Z,23.38
2022-10-12T05:54:39.397Z,25.90
2022-10-12T05:59:27.321Z,28.60
2022-10-12T06:04:14.572Z,30.63
2022-10-12T06:08:59.996Z,24.90
2022-10-12T06:13:45.118Z,15.75
2022-10-12T06:18:33.123Z,17.65
2022-10-12T06:23:18.295Z,16.08
2022-10-12T06:28:03.587Z,15.68
2022-10-12T06:32:48.652Z,19.83
2022-10-12T06:37:51.531Z,17.55
2022-10-12T06:42:37.079Z,18.38
2022-10-12T06:47:22.370Z,27.90
2022-10-12T06:52:08.009Z,25.77
2022-10-12T06:56:58.741Z,30.65
2022-10-12T07:01:44.353Z,27.90
2022-10-12T07:06:29.464Z,27.05
2022-10-12T07:11:16.047Z,45.15
2022-10-12T07:16:04.179Z,38.30
2022-10-12T07:20:49.507Z,31.25
2022-10-12T07:25:34.998Z,32.45
2022-10-12T07:30:20.465Z,35.13
2022-10-12T07:35:08.990Z,33.85
2022-10-12T07:39:57.446Z,36.17
2022-10-12T07:44:42.762Z,40.88
2022-10-12T07:49:28.117Z,40.05
2022-10-12T07:54:20.413Z,39.28
2022-10-12T07:59:07.422Z,37.53
2022-10-12T08:03:56.303Z,44.72
2022-10-12T08:08:44.553Z,37.17
2022-10-12T08:13:32.269Z,36.92
2022-10-12T08:18:17.563Z,39.47
2022-10-12T08:23:02.573Z,33.00
2022-10-12T08:27:47.963Z,36.80
2022-10-12T08:32:37.231Z,34.15
2022-10-12T08:37:22.571Z,31.73
2022-10-12T08:42:20.054Z,34.75
2022-10-12T08:47:09.862Z,33.38
2022-10-12T08:51:59.671Z,28.23
2022-10-12T08:56:45.143Z,32.85
2022-10-12T09:01:37.534Z,28.55
2022-10-12T09:06:27.491Z,27.00
2022-10-12T09:11:27.892Z,27.17
2022-10-12T09:16:23.782Z,25.10
2022-10-12T09:21:11.754Z,26.60
2022-10-12T09:25:59.797Z,23.10
2022-10-12T09:31:02.508Z,21.33
2022-10-12T09:35:51.223Z,21.60
2022-10-12T09:40:36.716Z,23.20
2022-10-12T09:45:24.278Z,24.40
2022-10-12T09:50:12.133Z,28.45
2022-10-12T09:55:03.764Z,17.88
2022-10-12T09:59:51.364Z,26.42
2022-10-12T10:04:37.121Z,20.15
2022-10-12T10:09:36.631Z,28.10
2022-10-12T10:14:22.343Z,17.77
2022-10-12T10:19:07.453Z,22.13
2022-10-12T10:23:56.428Z,20.33
2022-10-12T10:28:45.430Z,20.35
2022-10-12T10:33:31.259Z,16.17
2022-10-12T10:38:18.934Z,21.27
2022-10-12T10:43:06.927Z,17.58
2022-10-12T10:48:01.488Z,16.30
2022-10-12T10:52:53.886Z,23.65
2022-10-12T10:57:42.362Z,17.20
2022-10-12T11:02:34.699Z,15.48
2022-10-12T11:07:27.642Z,18.95
2022-10-12T11:12:19.378Z,20.20
2022-10-12T11:17:07.519Z,18.45
2022-10-12T11:21:57.113Z,18.70
2022-10-12T11:26:50.749Z,18.23
2022-10-12T11:31:40.494Z,18.63
2022-10-12T11:36:29.140Z,20.67
2022-10-12T11:41:35.013Z,20.52
2022-10-12T11:46:33.758Z,23.08
2022-10-12T11:51:18.786Z,17.77
2022-10-12T11:56:10.039Z,27.08
2022-10-12T12:01:10.211Z,17.23
2022-10-12T12:05:58.328Z,16.63
2022-10-12T12:11:04.432Z,17.00
2022-10-12T12:16:36.795Z,19.83
2022-10-12T12:21:24.809Z,17.40
2022-10-12T12:26:18.593Z,21.52
2022-10-12T12:31:07.190Z,18.08
2022-10-12T12:35:58.208Z,14.40
2022-10-12T12:40:58.551Z,16.30
2022-10-12T12:45:56.561Z,14.88
2022-10-12T12:50:43.140Z,16.65
2022-10-12T12:55:52.797Z,17.08
2022-10-12T13:00:51.347Z,16.15
2022-10-12T13:06:15.877Z,13.13
2022-10-12T13:11:19.791Z,19.23
2022-10-12T13:16:57.219Z,16.88
2022-10-12T13:21:27.620Z,19.60
2022-10-12T13:26:13.847Z,24.80
2022-10-12T13:31:04.817Z,16.52
2022-10-12T13:35:59.043Z,11.63
2022-10-12T13:40:47.781Z,12.27
2022-10-12T13:45:32.856Z,15.63
2022-10-12T13:50:22.873Z,15.90
2022-10-12T13:55:19.001Z,16.80
2022-10-12T14:00:11.884Z,12.63
2022-10-12T14:04:58.500Z,18.65
2022-10-12T14:09:47.400Z,19.58
2022-10-12T14:14:39.014Z,13.45
2022-10-12T14:19:38.355Z,16.23
2022-10-12T14:24:23.474Z,12.60
2022-10-12T14:29:31.345Z,15.65
2022-10-12T14:34:42.522Z,13.05
2022-10-12T14:39:30.062Z,15.90
2022-10-12T14:44:17.733Z,13.48
2022-10-12T14:49:03.203Z,15.95
2022-10-12T14:54:01.411Z,9.70
2022-10-12T14:58:47.555Z,8.13
2022-10-12T15:03:33.877Z,15.60
2022-10-12T15:08:19.249Z,14.18
2022-10-12T15:13:07.002Z,10.48
2022-10-12T15:17:52.445Z,12.88
2022-10-12T15:22:37.600Z,14.13
2022-10-12T15:27:23.548Z,9.65
2022-10-12T15:32:13.331Z,19.90
2022-10-12T15:36:58.699Z,13.18
2022-10-12T15:41:43.851Z,15.25
2022-10-12T15:46:29.757Z,13.07
2022-10-12T15:51:22.874Z,14.85
2022-10-12T15:56:15.011Z,15.48
2022-10-12T16:01:00.669Z,18.00
2022-10-12T16:05:46.396Z,14.27
2022-10-12T16:10:36.974Z,19.25
2022-10-12T16:15:24.791Z,19.85
2022-10-12T16:20:11.806Z,14.13
2022-10-12T16:24:57.159Z,17.08
2022-10-12T16:29:44.846Z,18.88
2022-10-12T16:34:33.162Z,17.27
2022-10-12T16:39:18.291Z,23.77
2022-10-12T16:44:04.782Z,15.25
2022-10-12T16:48:52.693Z,13.73
2022-10-12T16:53:38.123Z,14.63
2022-10-12T16:58:23.294Z,19.20
2022-10-12T17:03:08.847Z,21.50
2022-10-12T17:07:56.514Z,13.38
2022-10-12T17:12:41.968Z,14.25
2022-10-12T17:17:26.999Z,13.48
2022-10-12T17:22:14.806Z,15.95
2022-10-12T17:27:03.136Z,14.52
2022-10-12T17:31:49.363Z,15.10
2022-10-12T17:36:34.708Z,20.00
2022-10-12T17:41:20.204Z,14.23
2022-10-12T17:46:07.980Z,17.95
2022-10-12T17:50:53.476Z,20.50
2022-10-12T17:55:58.848Z,15.40
2022-10-12T18:00:44.470Z,20.00
2022-10-12T18:05:32.354Z,13.38
2022-10-12T18:10:17.849Z,22.13
2022-10-12T18:15:03.388Z,13.38
2022-10-12T18:19:48.903Z,14.43
2022-10-12T18:24:36.628Z,16.48
2022-10-12T18:29:21.979Z,14.88
2022-10-12T18:34:07.255Z,16.15
2022-10-12T18:38:52.988Z,17.08
2022-10-12T18:43:41.029Z,18.77
2022-10-12T18:48:28.898Z,15.48
2022-10-12T18:53:13.995Z,16.35
2022-10-12T18:57:59.403Z,16.90
2022-10-12T19:02:47.125Z,17.10
2022-10-12T19:07:35.602Z,16.27
2022-10-12T19:12:21.552Z,15.60
2022-10-12T19:17:06.956Z,19.40
2022-10-12T19:21:55.388Z,32.42
2022-10-12T19:26:40.977Z,16.95
2022-10-12T19:31:28.618Z,17.08
2022-10-12T19:36:15.883Z,19.40
2022-10-12T19:41:03.502Z,16.52
2022-10-12T19:45:50.204Z,17.77
2022-10-12T19:50:35.383Z,15.27
2022-10-12T19:55:20.684Z,17.25
2022-10-12T20:00:09.789Z,19.75
2022-10-12T20:04:55.493Z,15.27
2022-10-12T20:09:40.551Z,16.13
2022-10-12T20:14:25.854Z,23.48
2022-10-12T20:19:13.745Z,21.73
2022-10-12T20:23:59.152Z,17.15
2022-10-12T20:28:44.459Z,21.35
2022-10-12T20:33:29.895Z,24.10
2022-10-12T20:38:17.565Z,23.20
2022-10-12T20:43:02.880Z,23.23
2022-10-12T20:47:48.166Z,19.45
2022-10-12T20:52:34.012Z,18.90
2022-10-12T20:57:21.812Z,17.70
2022-10-12T21:02:07.630Z,16.67
2022-10-12T21:06:53.348Z,17.35
2022-10-12T21:11:38.702Z,14.88
2022-10-12T21:16:27.312Z,17.85
2022-10-12T21:21:14.870Z,16.17
2022-10-12T21:26:00.009Z,16.27
2022-10-12T21:30:46.420Z,19.85
2022-10-12T21:35:35.474Z,20.10
2022-10-12T21:40:20.771Z,24.08
2022-10-12T21:45:05.907Z,19.73
2022-10-12T21:49:51.220Z,19.77
2022-10-12T21:54:40.427Z,26.33
2022-10-12T21:59:25.768Z,19.05
2022-10-12T22:04:15.216Z,17.83
2022-10-12T22:09:02.567Z,16.42
2022-10-12T22:13:51.139Z,14.32
2022-10-12T22:18:36.635Z,18.50
2022-10-12T22:23:21.653Z,15.75
2022-10-12T22:28:07.067Z,15.95
2022-10-12T22:32:54.724Z,14.40
2022-10-12T22:37:40.646Z,15.65
2022-10-12T22:42:25.798Z,18.23
2022-10-12T22:47:11.331Z,19.00
2022-10-12T22:51:58.978Z,20.67
2022-10-12T22:56:44.409Z,21.80
2022-10-12T23:01:30.847Z,16.70
2022-10-12T23:06:18.316Z,14.27
2022-10-12T23:11:08.928Z,20.10
2022-10-12T23:15:54.423Z,17.25
2022-10-12T23:20:42.466Z,21.75
2022-10-12T23:25:29.649Z,17.50
2022-10-12T23:30:17.624Z,22.88
2022-10-12T23:35:02.934Z,18.50
2022-10-12T23:39:48.013Z,15.95
2022-10-12T23:44:33.307Z,15.88
2022-10-12T23:49:21.202Z,20.42
2022-10-12T23:54:06.895Z,19.80
2022-10-12T23:58:51.950Z,18.45
